August 13, 2022

Time Code Weather Temp. Visibility Ceiling Wind METAR/SPECI
7:00 pm
V
73 °F 9 mi - 060° 060° 4 kt METAR CYHU 132300Z AUTO 06004KT 9SM CLR 23/11 A3005 RMK SLP179 DENSITY ALT 900FT
6:00 pm
V
75 °F 9 mi - 060° 060° 5 kt METAR CYHU 132200Z AUTO 06005KT 9SM CLR 24/11 A3006 RMK SLP181 DENSITY ALT 1000FT
5:00 pm
V
75 °F 9 mi - 050° 050° 5 kt METAR CYHU 132100Z AUTO 05005KT 9SM CLR 24/11 A3007 RMK SLP186 DENSITY ALT 1000FT
4:00 pm
V
73 °F 9 mi - 020° 020° 4 kt METAR CYHU 132000Z AUTO 02004KT 330V040 9SM CLR 23/09 A3009 RMK SLP190 DENSITY ALT 900FT
3:00 pm
V
73 °F 9 mi - Var Var 3 kt METAR CYHU 131900Z AUTO VRB03KT 9SM CLR 23/10 A3010 RMK SLP193 DENSITY ALT 900FT
2:51 pm
V
75 °F 6 mi - 030° 030° 4 kt METAR CYHU 131851Z AUTO 03004KT 360V100 6SM HZ CLR 24/11 A3010 RMK SLP194 DENSITY ALT 900FT
2:43 pm
V
73 °F 5 mi - 070° 070° 4 kt METAR CYHU 131843Z AUTO 07004KT 010V090 5SM HZ CLR 23/09 A3010 RMK SLP194 DENSITY ALT 900FT
2:00 pm
V
73 °F 9 mi - Var Var 3 kt METAR CYHU 131800Z AUTO VRB03KT 9SM FEW060 23/11 A3011 RMK SLP198 DENSITY ALT 900FT
1:00 pm
V
72 °F 9 mi - Var Var 4 kt METAR CYHU 131700Z AUTO VRB04KT 9SM CLR 22/11 A3012 RMK SLP201 DENSITY ALT 800FT
12:00 pm
V
72 °F 9 mi - 350° 350° 6 kt METAR CYHU 131600Z AUTO 35006KT 320V040 9SM CLR 22/12 A3013 RMK SLP205 DENSITY ALT 700FT
11:00 am
V
70 °F 9 mi - 350° 350° 4 kt METAR CYHU 131500Z AUTO 35004KT 310V020 9SM CLR 21/13 A3014 RMK SLP207 DENSITY ALT 600FT
10:00 am
V
68 °F 9 mi - 030° 030° 3 kt METAR CYHU 131400Z AUTO 03003KT 340V090 9SM CLR 20/13 A3015 RMK SLP211 DENSITY ALT 400FT
9:00 am
V
64 °F 9 mi - 340° 340° 3 kt METAR CYHU 131300Z AUTO 34003KT 310V040 9SM CLR 18/13 A3015 RMK SLP211 DENSITY ALT 200FT
8:00 am
V
61 °F 9 mi - 050° 050° 4 kt METAR CYHU 131200Z AUTO 05004KT 9SM CLR 16/13 A3015 RMK SLP210 DENSITY ALT 100FT
7:00 am
V
57 °F 9 mi - 010° 010° 2 kt METAR CYHU 131100Z AUTO 01002KT 9SM CLR 14/12 A3014 RMK SLP208
6:00 am
V
54 °F 9 mi - 330° 330° 4 kt METAR CYHU 131000Z AUTO 33004KT 9SM CLR 12/11 A3013 RMK SLP205
5:29 am
V
54 °F 8 mi 7,100 ft 340° 340° 2 kt METAR CYHU 130929Z AUTO 34002KT 8SM BKN071 12/11 A3012 RMK SLP201
5:20 am
V
54 °F 5 mi 7,100 ft 330° 330° 2 kt METAR CYHU 130920Z AUTO 33002KT 5SM BR BKN071 12/11 A3011 RMK SLP200
5:00 am
V
54 °F 9 mi - 330° 330° 4 kt METAR CYHU 130900Z AUTO 33004KT 9SM FEW071 12/11 A3011 RMK SLP199
4:00 am
V
59 °F 9 mi 7,100 ft 350° 350° 3 kt METAR CYHU 130800Z AUTO 35003KT 9SM OVC071 15/12 A3010 RMK SLP195
3:00 am
V
57 °F 9 mi 7,600 ft 320° 320° 4 kt METAR CYHU 130700Z AUTO 32004KT 9SM OVC076 14/12 A3010 RMK SLP193
2:00 am
V
59 °F 9 mi - 310° 310° 2 kt METAR CYHU 130600Z AUTO 31002KT 9SM CLR 15/12 A3009 RMK SLP191
1:00 am
V
61 °F 9 mi 7,600 ft Var 000° 0 kt METAR CYHU 130500Z AUTO 00000KT 9SM BKN076 16/13 A3010 RMK SLP193 DENSITY ALT 100FT
12:00 am
V
63 °F 9 mi 7,600 ft Var 000° 0 kt METAR CYHU 130400Z AUTO 00000KT 9SM OVC076 17/13 A3010 RMK SLP195 DENSITY ALT 100FT

August 12, 2022

Time Code Weather Temp. Visibility Ceiling Wind METAR/SPECI
11:00 pm
V
63 °F 9 mi 8,100 ft 030° 030° 2 kt METAR CYHU 130300Z AUTO 03002KT 9SM OVC081 17/13 A3010 RMK SLP196 DENSITY ALT 200FT
10:00 pm
V
63 °F 9 mi 7,600 ft 330° 330° 4 kt METAR CYHU 130200Z AUTO 33004KT 9SM OVC076 17/13 A3010 RMK SLP196 DENSITY ALT 200FT
9:00 pm
V
64 °F 9 mi 7,600 ft 300° 300° 4 kt METAR CYHU 130100Z AUTO 30004KT 9SM OVC076 18/12 A3010 RMK SLP194 DENSITY ALT 300FT
8:00 pm
V
66 °F 9 mi 7,600 ft 290° 290° 7 kt METAR CYHU 130000Z AUTO 29007KT 9SM OVC076 19/12 A3008 RMK SLP189 DENSITY ALT 400FT
7:00 pm
V
66 °F 9 mi 7,600 ft 310° 310° 5 kt METAR CYHU 122300Z AUTO 31005KT 9SM FEW047 OVC076 19/11 A3007 RMK SLP186 DENSITY ALT 500FT
6:00 pm
V
68 °F 9 mi 7,100 ft 310° 310° 6 kt METAR CYHU 122200Z AUTO 31006KT 280V340 9SM OVC071 20/12 A3006 RMK SLP182 DENSITY ALT 500FT
5:00 pm
V
68 °F 9 mi 7,100 ft 320° 320° 6 kt METAR CYHU 122100Z AUTO 32006KT 280V350 9SM OVC071 20/12 A3006 RMK SLP182 DENSITY ALT 500FT
4:00 pm
V
66 °F 9 mi 5,500 ft 340° 340° 5 kt METAR CYHU 122000Z AUTO 34005KT 9SM OVC055 19/12 A3007 RMK SLP184 DENSITY ALT 400FT
3:00 pm
V
68 °F 9 mi 6,000 ft 260° 260° 4 kt METAR CYHU 121900Z AUTO 26004KT 230V330 9SM FEW041 SCT050 OVC060 20/12 A3006 RMK SLP181 DENSITY ALT 600FT
2:00 pm
V
66 °F 9 mi 4,300 ft 270° 270° 4 kt METAR CYHU 121800Z AUTO 27004KT 240V300 9SM BKN043 BKN055 19/12 A3006 RMK SLP182 DENSITY ALT 500FT
1:00 pm
V
66 °F 9 mi 5,000 ft 260° 260° 5 kt METAR CYHU 121700Z AUTO 26005KT 240V340 9SM SCT037 OVC050 19/11 A3006 RMK SLP180 DENSITY ALT 500FT
12:00 pm
V
64 °F 9 mi 4,200 ft 320° 320° 6 kt METAR CYHU 121600Z AUTO 32006KT 9SM OVC042 18/11 A3007 RMK SLP183 DENSITY ALT 300FT
11:00 am
V
64 °F 9 mi 3,800 ft 340° 340° 7 kt METAR CYHU 121500Z AUTO 34007KT 310V030 9SM BKN038 OVC048 18/11 A3007 RMK SLP185 DENSITY ALT 300FT
10:00 am
V
63 °F 9 mi 3,300 ft 360° 360° 10 kt METAR CYHU 121400Z AUTO 36010KT 9SM BKN033 OVC049 17/11 A3006 RMK SLP180 DENSITY ALT 300FT
9:00 am
V
63 °F 9 mi 4,900 ft 330° 330° 6 kt METAR CYHU 121300Z AUTO 33006KT 9SM OVC049 17/12 A3005 RMK SLP178 DENSITY ALT 300FT
8:00 am
V
61 °F 9 mi 4,500 ft 300° 300° 6 kt METAR CYHU 121200Z AUTO 30006KT 9SM OVC045 16/11 A3005 RMK SLP176 DENSITY ALT 200FT
7:00 am
V
61 °F 9 mi 4,700 ft 310° 310° 5 kt METAR CYHU 121100Z AUTO 31005KT 9SM OVC047 16/12 A3003 RMK SLP171 DENSITY ALT 100FT
6:00 am
V
59 °F 9 mi 5,000 ft 320° 320° 4 kt METAR CYHU 121000Z AUTO 32004KT 9SM FEW037 BKN050 15/11 A3002 RMK SLP167
5:00 am
V
59 °F 9 mi 4,600 ft 310° 310° 5 kt METAR CYHU 120900Z AUTO 31005KT 9SM OVC046 15/12 A3001 RMK SLP164
4:00 am
V
55 °F 9 mi - 290° 290° 4 kt METAR CYHU 120800Z AUTO 29004KT 9SM CLR 13/11 A3001 RMK SLP163
3:00 am
V
55 °F 9 mi - 060° 060° 3 kt METAR CYHU 120700Z AUTO 06003KT 9SM FEW039 13/11 A3001 RMK SLP163
2:00 am
V
59 °F 9 mi - 330° 330° 3 kt METAR CYHU 120600Z AUTO 33003KT 9SM CLR 15/11 A3000 RMK SLP162
1:00 am
V
57 °F 9 mi - 010° 010° 3 kt METAR CYHU 120500Z AUTO 01003KT 9SM CLR 14/11 A3000 RMK SLP162
12:00 am
V
61 °F 9 mi - 350° 350° 7 kt METAR CYHU 120400Z AUTO 35007KT 9SM CLR 16/11 A2999 RMK SLP159 DENSITY ALT 200FT

August 11, 2022

Time Code Weather Temp. Visibility Ceiling Wind METAR/SPECI
11:00 pm
V
63 °F 9 mi - 340° 340° 8 kt METAR CYHU 120300Z AUTO 34008KT 9SM CLR 17/11 A2997 RMK SLP151 DENSITY ALT 300FT
10:00 pm
V
64 °F 9 mi - 340° 340° 11 - 16 kt METAR CYHU 120200Z AUTO 34011G16KT 9SM CLR 18/11 A2996 RMK SLP147 DENSITY ALT 500FT
9:00 pm
V
66 °F 9 mi - 340° 340° 9 kt METAR CYHU 120100Z AUTO 34009KT 9SM CLR 19/11 A2994 RMK SLP139 DENSITY ALT 600FT
8:00 pm
V
70 °F 9 mi - 330° 330° 6 kt METAR CYHU 120000Z AUTO 33006KT 9SM FEW066 21/12 A2990 RMK SLP128 DENSITY ALT 800FT
7:00 pm
V
73 °F 9 mi - 310° 310° 12 kt METAR CYHU 112300Z AUTO 31012KT 9SM FEW086 23/14 A2987 RMK SLP117 DENSITY ALT 1200FT
6:58 pm
V
73 °F 9 mi - 310° 310° 11 kt METAR CYHU 112258Z AUTO 31011KT 9SM FEW086 23/14 A2987 RMK SLP117 DENSITY ALT 1200FT
6:00 pm
V
75 °F 9 mi - Var 000° 0 kt METAR CYHU 112200Z AUTO 00000KT 9SM CLR 24/16 A2986 RMK SLP112 DENSITY ALT 1300FT
5:00 pm
V
73 °F 9 mi 6,600 ft Var 000° 0 kt METAR CYHU 112100Z AUTO 00000KT 9SM BKN066 OVC085 23/17 A2986 RMK SLP112 DENSITY ALT 1200FT
4:04 pm
V
72 °F 9 mi - 320° 320° 4 kt METAR CYHU 112004Z AUTO 32004KT 290V020 9SM CLR 22/18 A2985 RMK LTNG DIST NE E S SLP111 DENSITY ALT 1000FT
4:00 pm
V
72 °F 9 mi - 350° 350° 4 kt METAR CYHU 112000Z AUTO 35004KT 9SM TS CLR 22/18 A2985 RMK PCPN 6.8MM PAST HR SLP110 DENSITY ALT 1000FT
3:47 pm
V
70 °F 9 mi - 010° 010° 6 kt METAR CYHU 111947Z AUTO 01006KT 9SM TS FEW024 SCT032 21/18 A2985 RMK LTNG DIST NE E S PCPN 6.8MM PAST HR SLP110 DENSITY ALT 1000FT
3:44 pm
V
70 °F 9 mi - 020° 020° 6 kt METAR CYHU 111944Z AUTO 02006KT 9SM VCTS SCT024 SCT036 21/18 A2985 RMK LTNG DIST NE E S PCPN 6.8MM PAST HR SLP110 DENSITY ALT 900FT
3:43 pm
V
70 °F 9 mi - 020° 020° 7 - 15 kt METAR CYHU 111943Z AUTO 02007G15KT 9SM -RA VCTS SCT024 SCT036 21/18 A2985 RMK LTNG DIST NE E S PCPN 6.8MM PAST HR SLP110 DENSITY ALT 900FT
3:34 pm
V
68 °F 6 mi 3,600 ft 010° 010° 12 - 17 kt METAR CYHU 111934Z AUTO 01012G17KT 6SM R24R/2600VP6000FT/ -TSRA BR SCT025 BKN036 20/18 A2985 RMK LTNG DIST NE E SW PRESFR PCPN 6.6MM PAST HR SLP110 DENSITY ALT 800FT
3:31 pm
I
66 °F 3 mi 3,600 ft 010° 010° 11 - 17 kt METAR CYHU 111931Z AUTO 01011G17KT 320V020 3SM R24R/2600VP6000FT/ TSRA BR SCT025 BKN036 19/18 A2985 RMK LTNG DIST ALQDS PCPN 6.6MM PAST HR SLP109 DENSITY ALT 700FT
3:21 pm
V
68 °F 5 mi 3,600 ft 310° 310° 13 - 20 kt METAR CYHU 111921Z AUTO 31013G20KT 290V030 5SM +TSRA FEW018 BKN036 BKN048 OVC100 20/16 A2987 RMK LTNG DIST ALQDS PRESRR PCPN 3.0MM PAST HR SLP118 DENSITY ALT 800FT
3:02 pm
V
75 °F 9 mi 6,600 ft 250° 250° 9 kt METAR CYHU 111902Z AUTO 25009KT 9SM -TSRA FEW034 SCT049 BKN066 BKN099 24/18 A2983 RMK LTNG DIST N NE SLP105 DENSITY ALT 1300FT
3:00 pm
V
75 °F 9 mi 7,100 ft 260° 260° 9 kt METAR CYHU 111900Z AUTO 26009KT 9SM -RA VCTS FEW032 SCT042 SCT055 BKN071 24/19 A2983 RMK SLP105 DENSITY ALT 1300FT
2:56 pm
V
75 °F 9 mi 7,100 ft 240° 240° 7 kt METAR CYHU 111856Z AUTO 24007KT 200V280 9SM -RA VCTS SCT032 SCT055 BKN071 BKN098 24/18 A2983 RMK LTNG DIST N NE NW SLP105 DENSITY ALT 1300FT
2:00 pm
V
77 °F 9 mi - 230° 230° 7 kt METAR CYHU 111800Z AUTO 23007KT 200V280 9SM FEW030 25/18 A2984 RMK SLP107 DENSITY ALT 1300FT
1:00 pm
V
75 °F 9 mi - 230° 230° 10 - 16 kt METAR CYHU 111700Z AUTO 23010G16KT 9SM FEW039 SCT110 24/18 A2986 RMK SLP113 DENSITY ALT 1300FT
12:00 pm
V
73 °F 9 mi - 210° 210° 7 kt METAR CYHU 111600Z AUTO 21007KT 190V260 9SM SCT091 SCT120 23/18 A2987 RMK SLP118 DENSITY ALT 1200FT
11:00 am
V
72 °F 9 mi - 240° 240° 6 kt METAR CYHU 111500Z AUTO 24006KT 220V280 9SM FEW071 SCT120 22/18 A2988 RMK SLP120 DENSITY ALT 1000FT
Older data

We and third parties follow your internet behavior on our website with cookies. If you continue, we assume you agree with our cookie policy. Learn more